Cross Roads, Texas
Current Conditions -  °F | °C
As of 6:15 PM on Friday 19 Dec 2014 (Local Time) from KT35 Reporting Station
Overcast Overcast  
Wind Chill: 46°   Ceiling: 600
Heat Index: 50°   Visibility: 7mi
Dew Point: 48°   Wind: 9mph
Humidity: 95%   Direction: 10°N
Pressure: 30.15"   Gusts: NA
Location:  30.8332°N, 96.9826°W
Report Text: KT35 200015Z AUTO 01008KT 7SM BKN006 OVC012 10/09 A3015 RMK AO2 T00980090
Loading
Personal Weather Stations






























Interactive Weather Map New forecast layout! Learn more

10-Day Weather Forecast

Advertisements
Track Severe Weather on mobile